EDT,Max TemperatureF,Mean TemperatureF,Min TemperatureF,Max Dew PointF,MeanDew PointF,Min DewpointF,Max Humidity, Mean Humidity, Min Humidity, Max Sea Level PressureIn, Mean Sea Level PressureIn, Min Sea Level PressureIn, Max VisibilityMiles, Mean VisibilityMiles, Min VisibilityMiles, Max Wind SpeedMPH, Mean Wind SpeedMPH, Max Gust SpeedMPH,PrecipitationIn, CloudCover, Events, WindDirDegrees
2011-10-1,48,44,41,45,42,36,100,92,81,29.95,29.85,29.74,10,8,2,20,9,28,0.27,8,Rain,318
2011-10-2,41,37,33,39,36,32,100,93,87,29.95,29.89,29.85,10,8,1,14,9,20,0.37,8,Rain-Snow,315
2011-10-3,55,48,41,48,44,39,100,89,64,30.10,29.98,29.89,10,7,2,8,3,,0.11,8,Rain,320
2011-10-4,59,52,46,52,48,43,100,91,72,30.23,30.15,30.10,10,6,0,13,4,20,0.00,7,Fog,288
2011-10-5,68,54,42,50,45,41,100,83,52,30.32,30.25,30.20,10,7,0,12,6,17,0.00,2,Fog,278
2011-10-6,68,52,37,45,40,34,93,67,39,30.40,30.36,30.32,10,10,10,8,5,,0.00,0,,102
2011-10-7,73,57,42,44,41,29,90,59,23,30.47,30.43,30.36,10,10,10,7,2,,0.00,0,,119
2011-10-8,77,60,46,50,47,44,93,64,36,30.52,30.47,30.43,10,10,8,6,4,,0.00,0,,125
2011-10-9,78,62,48,51,48,43,93,63,29,30.50,30.43,30.37,10,10,8,8,2,,0.00,0,,119
2011-10-10,75,62,50,55,49,40,93,67,29,30.36,30.30,30.22,10,10,8,5,1,,0.00,0,,79
2011-10-11,72,60,50,54,52,48,94,75,45,30.22,30.16,30.09,10,8,2,9,3,,0.00,1,,102
2011-10-12,60,56,52,54,52,50,94,91,80,30.08,29.95,29.84,10,8,2,14,9,21,0.35,8,Rain,110
2011-10-13,64,58,53,57,54,51,94,87,77,29.83,29.69,29.48,10,10,2,14,9,22,0.23,8,Rain,122
2011-10-14,59,52,45,56,51,36,93,78,62,29.56,29.44,29.39,10,8,2,31,10,41,0.63,7,Rain,226
2011-10-15,52,47,42,43,39,33,92,71,50,29.80,29.61,29.55,10,9,2,33,17,43,0.31,8,Rain-Thunderstorm,245
2011-10-16,58,51,44,49,41,33,100,78,56,29.92,29.80,29.68,10,10,5,20,12,28,0.28,6,Rain,243
2011-10-17,59,51,42,48,35,25,89,59,28,29.81,29.77,29.73,10,10,8,32,15,41,0.00,2,,248
2011-10-18,62,55,47,39,35,30,66,53,39,29.86,29.81,29.74,10,10,10,16,5,21,T,6,Thunderstorm,262
2011-10-19,64,57,50,54,49,40,89,74,59,29.71,29.51,29.21,10,10,10,24,12,33,0.09,6,,103
2011-10-20,50,46,41,48,42,36,93,82,70,29.63,29.36,29.22,10,8,2,18,12,31,0.30,8,Rain-Thunderstorm,221
2011-10-21,45,43,40,41,40,39,100,95,89,30.09,29.92,29.66,10,8,4,22,13,31,0.05,8,Rain,248
2011-10-22,52,45,37,41,38,34,96,75,54,30.12,30.09,30.06,10,10,8,12,5,16,0.00,6,,262
2011-10-23,57,45,32,39,35,31,96,70,43,30.14,30.09,30.06,10,9,2,12,4,16,0.00,1,,166
2011-10-24,54,49,43,48,43,35,100,81,61,30.09,30.01,29.96,10,9,2,20,8,25,0.02,6,Rain,231
2011-10-25,57,46,35,41,37,34,65,58,50,30.20,30.11,29.97,10,10,9,13,6,17,0.00,2,,249
2011-10-26,59,51,43,51,46,35,93,75,56,29.96,29.83,29.70,10,10,6,20,7,30,0.26,7,Rain,230
2011-10-27,54,42,30,52,41,28,93,89,85,30.09,29.77,29.68,10,7,2,17,8,21,0.44,8,Rain-Snow,337
2011-10-28,42,34,25,34,28,24,100,78,55,30.26,30.18,30.05,10,8,0,7,1,9,0.00,2,Fog,39
2011-10-29,35,33,30,32,31,28,100,88,75,30.15,30.06,30.00,10,3,0,9,4,12,0.34,8,Fog-Snow,43
2011-10-30,37,33,28,31,29,27,100,91,82,30.32,30.22,30.07,10,4,0,9,4,12,0.00,4,Fog,238
2011-10-31,45,38,32,34,31,28,85,75,65,30.29,30.24,30.17,10,10,10,14,8,17,T,4,,126